Time;durP1;ratioP1;P1;durP2;ratioP2;P2;SDS_P1;SDS_P2;PMS_P1;PMS_P2;Temp;Humidity;BMP_temperature;BMP_pressure;BME280_temperature;BME280_humidity;BME280_pressure;Samples;Min_cycle;Max_cycle;Signal;HPM_P1;HPM_P2
2021/07/24 00:00:55;;;;;;;16.85;9.18;;;;;;;16.31;73.64;101392.71;1814981;78;21078;-88
2021/07/24 00:03:23;;;;;;;10.90;8.93;;;;;;;16.29;73.66;101392.22;1815398;79;21004;-88
2021/07/24 00:05:50;;;;;;;18.10;9.90;;;;;;;16.27;73.73;101394.88;1814975;79;21206;-88
2021/07/24 00:08:17;;;;;;;15.20;9.85;;;;;;;16.26;73.80;101393.09;1815001;79;21059;-88
2021/07/24 00:10:44;;;;;;;20.32;10.03;;;;;;;16.23;73.84;101390.38;1815080;78;22543;-88
2021/07/24 00:13:10;;;;;;;15.83;9.10;;;;;;;16.23;73.93;101389.05;1815028;79;21095;-88
2021/07/24 00:15:37;;;;;;;15.13;10.68;;;;;;;16.21;74.04;101387.27;1815152;79;21469;-88
2021/07/24 00:18:04;;;;;;;17.82;9.88;;;;;;;16.19;74.13;101385.03;1815041;79;21125;-88
2021/07/24 00:20:31;;;;;;;12.80;10.20;;;;;;;16.17;74.25;101380.14;1814984;79;21059;-88
2021/07/24 00:22:57;;;;;;;20.55;10.13;;;;;;;16.13;74.29;101382.75;1814155;79;21408;-89
2021/07/24 00:25:24;;;;;;;18.32;9.45;;;;;;;16.11;74.33;101389.80;1815029;78;21008;-89
2021/07/24 00:27:51;;;;;;;16.27;9.83;;;;;;;16.10;74.39;101384.05;1815243;79;21086;-88
2021/07/24 00:30:17;;;;;;;14.33;9.13;;;;;;;16.07;74.41;101386.66;1814690;79;21191;-88
2021/07/24 00:32:44;;;;;;;15.20;9.80;;;;;;;16.06;74.50;101385.31;1815266;79;21054;-89
2021/07/24 00:35:11;;;;;;;17.42;9.43;;;;;;;16.04;74.60;101381.75;1815430;79;21740;-88
2021/07/24 00:37:38;;;;;;;14.98;9.43;;;;;;;16.01;74.65;101385.67;1815021;78;21050;-89
2021/07/24 00:40:06;;;;;;;16.17;9.33;;;;;;;16.01;74.72;101388.33;1815105;79;21285;-88
2021/07/24 00:42:33;;;;;;;14.58;9.23;;;;;;;15.99;74.77;101387.42;1815013;78;21055;-89
2021/07/24 00:45:03;;;;;;;14.03;9.80;;;;;;;15.97;74.85;101383.41;1815250;79;21086;-89
2021/07/24 00:47:39;;;;;;;13.90;9.43;;;;;;;15.96;74.91;101384.30;1815026;79;22590;-88
2021/07/24 00:50:11;;;;;;;14.78;9.13;;;;;;;15.94;74.98;101380.74;1809371;78;21067;-89
2021/07/24 00:52:39;;;;;;;14.10;9.60;;;;;;;15.93;75.03;101386.91;1815044;78;21556;-88
2021/07/24 00:55:07;;;;;;;17.90;9.15;;;;;;;15.91;75.11;101380.69;1814951;78;21431;-87
2021/07/24 00:57:36;;;;;;;15.45;9.28;;;;;;;15.91;75.18;101387.33;1815085;78;21001;-88
2021/07/24 01:00:05;;;;;;;14.78;9.55;;;;;;;15.90;75.27;101392.20;1783965;79;21931;-88
2021/07/24 01:02:32;;;;;;;22.00;9.90;;;;;;;15.92;75.36;101389.13;1814990;78;21517;-88
2021/07/24 01:05:00;;;;;;;11.73;9.30;;;;;;;15.93;75.37;101387.83;1794005;79;21065;-88
2021/07/24 01:07:27;;;;;;;19.77;9.83;;;;;;;15.94;75.40;101389.59;1814864;79;21035;-88
2021/07/24 01:09:54;;;;;;;13.15;9.63;;;;;;;15.95;75.46;101393.13;1807802;79;21015;-88
2021/07/24 01:12:20;;;;;;;13.93;10.18;;;;;;;15.96;75.50;101393.59;1815068;79;22531;-89
2021/07/24 01:14:47;;;;;;;15.85;9.00;;;;;;;15.97;75.51;101390.05;1814911;79;21544;-89
2021/07/24 01:17:14;;;;;;;17.02;9.20;;;;;;;15.99;75.54;101388.34;1815197;79;21087;-88
2021/07/24 01:19:40;;;;;;;15.50;9.85;;;;;;;16.02;75.56;101383.49;1814989;79;20999;-88
2021/07/24 01:22:08;;;;;;;13.15;9.03;;;;;;;16.05;75.57;101380.89;1781499;79;21114;-87
2021/07/24 01:24:35;;;;;;;16.90;9.38;;;;;;;16.07;75.57;101381.35;1792037;79;22610;-88
2021/07/24 01:27:08;;;;;;;15.25;9.05;;;;;;;16.10;75.58;101376.09;1811941;79;21082;-88
2021/07/24 01:29:40;;;;;;;14.07;8.38;;;;;;;16.13;75.58;101375.22;1814796;79;21050;-88
2021/07/24 01:32:05;;;;;;;16.50;9.83;;;;;;;16.17;75.62;101371.72;1844332;77;21450;-88
2021/07/24 01:34:32;;;;;;;14.83;9.38;;;;;;;16.20;75.55;101377.09;1847044;77;21014;-88
2021/07/24 01:36:58;;;;;;;12.43;8.33;;;;;;;16.22;75.50;101370.47;1847320;77;21724;-88
2021/07/24 01:39:25;;;;;;;15.80;8.83;;;;;;;16.24;75.45;101372.70;1847155;77;21019;-88
2021/07/24 01:41:55;;;;;;;13.95;8.55;;;;;;;16.26;75.43;101371.84;1847751;77;21101;-91
2021/07/24 01:44:20;;;;;;;13.70;9.18;;;;;;;16.25;75.41;101378.45;1819706;77;21085;-91
2021/07/24 01:46:47;;;;;;;14.40;8.90;;;;;;;16.25;75.39;101377.13;1853396;77;20986;-84
2021/07/24 01:54:56;;;;;;;14.63;8.98;;;;;;;16.29;75.42;101370.97;1858376;77;20994;-84
2021/07/24 01:57:23;;;;;;;13.43;9.50;;;;;;;16.27;75.37;101371.39;1857940;77;21003;-84
2021/07/24 01:59:51;;;;;;;12.37;8.78;;;;;;;16.27;75.38;101374.05;1858560;76;21029;-85
2021/07/24 02:02:21;;;;;;;13.75;8.60;;;;;;;16.28;75.44;101372.73;1858539;77;21752;-85
2021/07/24 02:04:50;;;;;;;13.25;8.53;;;;;;;16.29;75.38;101367.90;1858483;77;20973;-85
2021/07/24 02:07:20;;;;;;;17.50;8.73;;;;;;;16.30;75.38;101366.13;1857790;77;21068;-86
2021/07/24 02:09:47;;;;;;;14.55;8.68;;;;;;;16.28;75.35;101365.22;1858552;77;21508;-85
2021/07/24 02:12:13;;;;;;;10.48;8.05;;;;;;;16.26;75.30;101369.63;1858552;77;20963;-85
2021/07/24 02:14:40;;;;;;;14.35;9.08;;;;;;;16.22;75.35;101366.48;1858700;77;21736;-85
2021/07/24 02:17:07;;;;;;;13.78;8.65;;;;;;;16.18;75.33;101364.64;1858435;77;20963;-85
2021/07/24 02:19:33;;;;;;;14.30;8.65;;;;;;;16.15;75.44;101365.95;1858518;77;20963;-85
2021/07/24 02:22:00;;;;;;;12.47;8.75;;;;;;;16.11;75.52;101365.02;1858401;77;21089;-85
2021/07/24 02:24:27;;;;;;;11.12;8.80;;;;;;;16.08;75.56;101361.88;1858630;77;21061;-85
2021/07/24 02:26:54;;;;;;;14.05;8.90;;;;;;;16.07;75.65;101364.09;1858246;77;22599;-85
2021/07/24 02:29:21;;;;;;;13.58;8.85;;;;;;;16.06;75.74;101366.27;1858430;77;21003;-85
2021/07/24 02:31:48;;;;;;;15.45;8.48;;;;;;;16.09;75.84;101368.09;1858687;77;21249;-85
2021/07/24 02:34:15;;;;;;;13.75;8.75;;;;;;;16.09;75.85;101362.34;1858446;77;21050;-85
2021/07/24 02:36:41;;;;;;;17.57;10.28;;;;;;;16.10;75.88;101358.83;1858370;77;20967;-85
2021/07/24 02:39:08;;;;;;;12.13;8.85;;;;;;;16.12;75.92;101358.41;1827527;76;21728;-85
2021/07/24 02:41:35;;;;;;;13.58;8.93;;;;;;;16.13;75.88;101361.94;1829103;77;21059;-85
2021/07/24 02:44:02;;;;;;;11.73;8.50;;;;;;;16.13;75.93;101360.17;1819929;75;21765;-85
2021/07/24 02:46:28;;;;;;;14.65;8.65;;;;;;;16.15;75.95;101361.97;1811835;78;21037;-86
2021/07/24 02:48:55;;;;;;;13.98;8.60;;;;;;;16.17;75.97;101361.10;1809857;79;21082;-85
2021/07/24 02:51:22;;;;;;;12.82;8.10;;;;;;;16.17;75.99;101358.45;1775961;80;21752;-85
2021/07/24 02:53:48;;;;;;;14.68;8.45;;;;;;;16.19;76.02;101361.12;1809732;79;20978;-85
2021/07/24 02:56:15;;;;;;;11.68;8.45;;;;;;;16.23;76.06;101366.47;1775842;80;21008;-86
2021/07/24 02:58:42;;;;;;;12.43;8.33;;;;;;;16.28;76.13;101358.58;1809339;79;20991;-85
2021/07/24 03:01:09;;;;;;;14.93;8.45;;;;;;;16.33;76.11;101362.19;1775923;80;21020;-85
2021/07/24 03:03:35;;;;;;;13.70;8.50;;;;;;;16.39;76.09;101364.02;1809596;79;22628;-85
2021/07/24 03:06:03;;;;;;;13.10;7.87;;;;;;;16.45;76.07;101364.08;1744182;80;21588;-85
2021/07/24 03:08:30;;;;;;;12.37;8.05;;;;;;;16.52;76.01;101361.94;1809668;79;21030;-87
2021/07/24 03:11:25;;;;;;;11.48;7.90;;;;;;;16.59;75.98;101360.22;1798552;78;21310;-94
2021/07/24 03:14:04;;;;;;;9.90;7.62;;;;;;;16.68;75.96;101364.30;1774440;80;21083;-91
2021/07/24 03:16:31;;;;;;;11.18;7.70;;;;;;;16.78;75.91;101364.86;1774033;80;22072;-88
2021/07/24 03:18:58;;;;;;;11.60;7.55;;;;;;;16.88;75.87;101370.73;1774223;80;21012;-86
2021/07/24 03:21:24;;;;;;;10.75;7.75;;;;;;;17.00;75.77;101365.06;1774213;80;21102;-88
2021/07/24 03:23:51;;;;;;;9.80;7.80;;;;;;;17.10;75.62;101363.83;1774297;80;21113;-87
2021/07/24 03:26:19;;;;;;;11.93;7.83;;;;;;;17.20;75.50;101364.78;1774410;80;21179;-88
2021/07/24 03:28:46;;;;;;;13.25;7.75;;;;;;;17.32;75.31;101367.08;1774259;80;21832;-88
2021/07/24 03:31:13;;;;;;;10.20;7.40;;;;;;;17.40;75.15;101366.69;1774223;80;21079;-88
2021/07/24 03:33:39;;;;;;;16.32;8.95;;;;;;;17.49;75.01;101358.77;1774135;80;21235;-88
2021/07/24 03:36:06;;;;;;;10.18;6.95;;;;;;;17.58;74.85;101356.61;1774322;80;21043;-88
2021/07/24 03:38:33;;;;;;;13.85;7.12;;;;;;;17.67;74.76;101359.33;1774273;80;21079;-87
2021/07/24 03:41:01;;;;;;;10.50;6.92;;;;;;;17.77;74.64;101362.47;1774177;80;21126;-86
2021/07/24 03:43:28;;;;;;;9.00;7.05;;;;;;;17.93;74.66;101354.16;1748956;80;21023;-88
2021/07/24 03:45:55;;;;;;;13.60;7.42;;;;;;;18.18;74.68;101356.91;1773977;80;21122;-90
2021/07/24 03:48:22;;;;;;;9.35;6.85;;;;;;;18.87;75.71;101352.20;1774021;80;21494;-87
2021/07/24 03:50:49;;;;;;;9.25;6.80;;;;;;;19.80;74.85;101351.18;1787756;77;20976;-86
2021/07/24 03:53:16;;;;;;;9.60;6.53;;;;;;;20.30;73.12;101354.53;1846526;77;21717;-86
2021/07/24 03:55:42;;;;;;;9.08;6.58;;;;;;;20.36;71.61;101355.40;1846771;77;21583;-86
2021/07/24 03:58:09;;;;;;;8.55;5.83;;;;;;;20.24;70.92;101361.26;1817813;76;20928;-86
2021/07/24 04:00:46;;;;;;;8.25;6.15;;;;;;;20.13;70.85;101359.51;1830569;77;20991;-86
2021/07/24 04:03:07;;;;;;;11.03;6.40;;;;;;;20.13;70.58;101353.28;1845338;77;21050;-84
2021/07/24 04:05:40;;;;;;;8.08;6.15;;;;;;;20.15;70.38;101360.84;1846902;77;22565;-84
2021/07/24 04:08:07;;;;;;;8.15;6.58;;;;;;;20.21;70.24;101356.80;1847025;77;21026;-85
2021/07/24 04:10:34;;;;;;;8.38;6.00;;;;;;;20.28;70.06;101359.88;1846857;77;21003;-85
2021/07/24 04:13:03;;;;;;;10.82;6.17;;;;;;;20.36;69.82;101361.17;1846937;76;20940;-85
2021/07/24 04:15:30;;;;;;;8.30;5.80;;;;;;;20.47;69.59;101361.12;1846267;77;21018;-85
2021/07/24 04:17:59;;;;;;;9.18;6.28;;;;;;;20.57;69.48;101362.39;1846981;77;21787;-85
2021/07/24 04:20:25;;;;;;;8.03;5.83;;;;;;;20.68;69.19;101360.11;1812701;77;21015;-85
2021/07/24 04:22:52;;;;;;;8.85;5.78;;;;;;;20.77;69.02;101360.92;1857481;77;21049;-85
2021/07/24 04:25:19;;;;;;;12.13;6.00;;;;;;;20.88;68.73;101369.34;1858448;77;21130;-85
2021/07/24 04:27:47;;;;;;;14.58;6.12;;;;;;;20.93;68.47;101375.55;1858768;77;21010;-85
2021/07/24 04:30:13;;;;;;;8.93;6.47;;;;;;;20.99;68.38;101366.13;1858763;76;21832;-85
2021/07/24 04:32:40;;;;;;;11.70;5.87;;;;;;;21.10;68.20;101368.72;1858622;77;21101;-85
2021/07/24 04:35:08;;;;;;;11.15;6.28;;;;;;;21.16;67.98;101368.20;1858923;76;21104;-85
2021/07/24 04:37:35;;;;;;;8.98;5.97;;;;;;;21.22;67.76;101376.63;1858394;77;21018;-85
2021/07/24 04:40:02;;;;;;;14.70;6.55;;;;;;;21.26;67.60;101370.80;1858842;77;21053;-85
2021/07/24 04:42:29;;;;;;;12.88;6.70;;;;;;;21.33;67.52;101368.04;1858661;77;21767;-85
2021/07/24 04:44:56;;;;;;;11.38;6.37;;;;;;;21.48;67.51;101367.50;1858600;77;21081;-85
2021/07/24 04:47:23;;;;;;;8.95;5.45;;;;;;;21.62;67.21;101367.34;1858338;77;21014;-85
2021/07/24 04:49:51;;;;;;;8.50;5.97;;;;;;;21.77;66.93;101374.32;1858610;77;20983;-85
2021/07/24 04:52:21;;;;;;;8.15;6.15;;;;;;;21.85;66.72;101372.45;1858429;77;21535;-85
2021/07/24 04:54:49;;;;;;;8.48;5.35;;;;;;;22.00;66.66;101370.02;1858776;77;21758;-86
2021/07/24 04:57:17;;;;;;;9.98;5.70;;;;;;;22.32;66.60;101370.53;1858531;77;21014;-86
2021/07/24 04:59:51;;;;;;;7.20;5.50;;;;;;;23.43;68.00;101373.27;1858626;77;20983;-86
2021/07/24 05:02:18;;;;;;;7.12;5.40;;;;;;;25.70;67.79;101369.01;1813754;75;21563;-87
2021/07/24 05:04:46;;;;;;;12.23;6.22;;;;;;;27.86;64.79;101373.28;1853565;77;21026;-87
2021/07/24 05:07:13;;;;;;;13.08;6.08;;;;;;;29.27;62.26;101364.55;1858650;77;21751;-86
2021/07/24 05:09:40;;;;;;;11.78;5.78;;;;;;;30.35;59.77;101364.66;1858240;77;21100;-86
2021/07/24 05:12:07;;;;;;;8.35;5.05;;;;;;;31.72;58.53;101371.33;1858578;76;21473;-86
2021/07/24 05:14:34;;;;;;;6.83;5.20;;;;;;;33.24;56.55;101360.92;1858621;76;21500;-87
2021/07/24 05:17:08;;;;;;;8.55;5.47;;;;;;;34.60;54.66;101365.56;1858566;77;21507;-87
2021/07/24 05:19:39;;;;;;;10.03;4.87;;;;;;;35.80;52.20;101366.95;1858704;77;21912;-86
2021/07/24 05:22:06;;;;;;;11.80;4.85;;;;;;;36.80;50.07;101373.32;1857360;77;21077;-85
2021/07/24 05:24:35;;;;;;;7.00;4.37;;;;;;;37.53;47.78;101368.61;1858593;77;20975;-85
2021/07/24 05:27:03;;;;;;;9.80;4.50;;;;;;;37.84;46.30;101370.30;1859077;76;21061;-85
2021/07/24 05:29:29;;;;;;;9.70;4.67;;;;;;;38.39;45.08;101367.69;1858673;77;21545;-85
2021/07/24 05:31:56;;;;;;;12.80;4.87;;;;;;;38.81;43.64;101369.22;1857438;77;21728;-85
2021/07/24 05:34:24;;;;;;;10.75;4.55;;;;;;;39.24;42.61;101368.30;1858499;77;20963;-85
2021/07/24 05:36:52;;;;;;;9.25;4.85;;;;;;;39.40;41.02;101366.44;1858519;77;20990;-85
2021/07/24 05:39:18;;;;;;;9.58;4.22;;;;;;;39.48;40.68;101365.83;1858434;77;21014;-85
2021/07/24 05:41:45;;;;;;;7.72;4.05;;;;;;;39.77;39.64;101370.10;1821161;76;21605;-85
2021/07/24 05:44:13;;;;;;;6.90;4.20;;;;;;;39.93;38.92;101372.41;1829221;77;21772;-85
2021/07/24 05:46:40;;;;;;;8.53;4.67;;;;;;;38.94;37.34;101360.78;1848622;77;21002;-85
2021/07/24 05:49:07;;;;;;;9.30;4.42;;;;;;;36.90;37.11;101366.16;1846931;77;20968;-85
2021/07/24 05:51:33;;;;;;;10.20;4.90;;;;;;;35.06;38.11;101359.73;1846547;77;21162;-85
2021/07/24 05:54:00;;;;;;;7.35;4.83;;;;;;;33.76;39.19;101361.82;1820643;77;21540;-85
2021/07/24 05:56:27;;;;;;;7.65;4.28;;;;;;;32.47;39.67;101354.49;1846606;77;21742;-85
2021/07/24 05:58:53;;;;;;;7.00;3.92;;;;;;;31.43;40.80;101351.56;1846505;76;21535;-85
2021/07/24 06:01:21;;;;;;;6.60;4.03;;;;;;;30.60;41.77;101344.43;1846680;77;21111;-85
2021/07/24 06:03:48;;;;;;;8.83;4.15;;;;;;;29.93;42.55;101348.52;1846590;76;20987;-85
2021/07/24 06:06:15;;;;;;;6.60;3.85;;;;;;;29.37;43.42;101347.40;1846603;77;21018;-85
2021/07/24 06:08:42;;;;;;;6.30;4.30;;;;;;;28.82;43.62;101351.98;1846653;77;21738;-85
2021/07/24 06:11:08;;;;;;;7.87;4.20;;;;;;;28.43;44.25;101348.57;1846513;77;20987;-85
2021/07/24 06:13:35;;;;;;;9.48;7.37;;;;;;;28.07;45.01;101339.61;1846645;77;21026;-86
2021/07/24 06:16:01;;;;;;;8.93;4.62;;;;;;;27.77;45.47;101338.93;1846825;77;21035;-85
2021/07/24 06:18:28;;;;;;;8.08;4.60;;;;;;;27.54;46.05;101342.89;1846972;77;21006;-85
2021/07/24 06:20:55;;;;;;;7.83;4.47;;;;;;;27.31;46.56;101335.63;1846823;77;21753;-85
2021/07/24 06:23:22;;;;;;;12.35;4.55;;;;;;;27.13;46.77;101338.93;1846575;77;20972;-85
2021/07/24 06:25:51;;;;;;;8.63;3.92;;;;;;;26.84;47.09;101342.17;1846931;77;21488;-85
2021/07/24 06:28:18;;;;;;;9.80;4.78;;;;;;;26.79;47.53;101335.16;1846813;77;21205;-85
2021/07/24 06:30:46;;;;;;;10.58;4.78;;;;;;;26.64;47.68;101341.47;1846897;77;21008;-85
2021/07/24 06:33:14;;;;;;;6.65;4.85;;;;;;;26.53;48.01;101341.77;1846912;77;21767;-85
2021/07/24 06:35:40;;;;;;;7.17;4.35;;;;;;;26.33;48.21;101339.73;1846977;77;20994;-86
2021/07/24 06:38:08;;;;;;;7.83;4.30;;;;;;;26.17;48.54;101341.13;1846935;77;20964;-86
2021/07/24 06:40:35;;;;;;;6.92;4.20;;;;;;;26.17;48.94;101343.35;1846864;77;21058;-86
2021/07/24 06:43:03;;;;;;;5.90;4.45;;;;;;;26.12;48.76;101343.08;1846828;77;21042;-85
2021/07/24 06:45:30;;;;;;;6.70;4.40;;;;;;;25.90;48.97;101339.66;1846917;77;22517;-85
2021/07/24 06:47:57;;;;;;;9.08;4.78;;;;;;;25.82;48.93;101348.89;1846964;77;21015;-85
2021/07/24 06:50:26;;;;;;;8.15;4.55;;;;;;;25.64;49.10;101347.14;1846815;77;20983;-85
2021/07/24 06:52:53;;;;;;;8.38;4.35;;;;;;;25.47;49.46;101344.92;1846818;77;21485;-85
2021/07/24 06:55:20;;;;;;;7.70;4.17;;;;;;;25.34;49.65;101336.72;1846558;77;20987;-85
2021/07/24 06:57:46;;;;;;;7.78;4.28;;;;;;;25.25;50.03;101337.88;1846760;77;21764;-85
2021/07/24 07:00:14;;;;;;;10.55;4.65;;;;;;;25.26;50.32;101343.67;1846868;77;21401;-85
2021/07/24 07:02:40;;;;;;;7.25;4.80;;;;;;;25.27;50.49;101338.72;1846984;76;21006;-85
2021/07/24 07:05:08;;;;;;;6.62;4.40;;;;;;;25.21;50.58;101338.86;1846773;77;21084;-85
2021/07/24 07:07:34;;;;;;;8.55;4.08;;;;;;;25.27;50.83;101338.72;1847014;77;20999;-85
2021/07/24 07:10:04;;;;;;;6.25;4.25;;;;;;;25.35;51.03;101336.69;1846941;76;21785;-86
2021/07/24 07:12:30;;;;;;;6.58;4.22;;;;;;;25.55;51.16;101340.66;1845755;77;21010;-86
2021/07/24 07:14:59;;;;;;;5.90;4.00;;;;;;;25.79;51.08;101336.39;1846931;77;20996;-86
2021/07/24 07:17:25;;;;;;;6.47;3.80;;;;;;;26.03;50.50;101336.13;1846896;77;21056;-86
2021/07/24 07:19:53;;;;;;;9.43;5.30;;;;;;;26.21;50.04;101340.57;1835964;77;20991;-86
2021/07/24 07:22:19;;;;;;;6.58;3.80;;;;;;;26.27;49.35;101347.12;1846900;77;21761;-86
2021/07/24 07:24:46;;;;;;;5.08;4.10;;;;;;;26.15;49.37;101351.96;1818761;77;21015;-86
2021/07/24 07:27:13;;;;;;;7.05;4.47;;;;;;;26.04;49.05;101350.53;1846977;77;20920;-85
2021/07/24 07:29:40;;;;;;;6.25;4.53;;;;;;;25.89;49.18;101354.05;1846832;77;20993;-85
2021/07/24 07:32:07;;;;;;;10.32;6.62;;;;;;;25.85;49.49;101348.33;1847265;77;21144;-86
2021/07/24 07:34:33;;;;;;;6.65;4.35;;;;;;;25.83;49.33;101348.84;1846824;77;21669;-86
2021/07/24 07:37:00;;;;;;;4.12;3.83;;;;;;;25.78;49.37;101353.48;1846861;77;21003;-86
2021/07/24 07:39:27;;;;;;;10.00;4.22;;;;;;;25.89;49.48;101353.18;1847340;76;21070;-86
2021/07/24 07:41:53;;;;;;;7.15;4.67;;;;;;;26.10;49.64;101359.30;1846957;76;21568;-86
2021/07/24 07:44:23;;;;;;;8.00;4.90;;;;;;;26.33;49.46;101355.92;1846972;77;21229;-86
2021/07/24 07:46:49;;;;;;;9.43;4.40;;;;;;;26.55;49.53;101360.62;1825015;75;21803;-86
2021/07/24 07:49:15;;;;;;;6.47;4.47;;;;;;;26.74;49.16;101365.00;1854463;77;21504;-86
2021/07/24 07:51:42;;;;;;;6.92;4.47;;;;;;;26.75;48.89;101360.03;1858167;76;21025;-86
2021/07/24 07:54:09;;;;;;;11.40;6.03;;;;;;;26.74;49.05;101369.05;1858459;77;21002;-85
2021/07/24 07:56:37;;;;;;;11.48;6.47;;;;;;;26.70;49.24;101366.91;1858230;77;21492;-85
2021/07/24 07:59:04;;;;;;;9.75;6.47;;;;;;;26.54;49.59;101373.25;1858333;77;21809;-86
2021/07/24 08:01:31;;;;;;;9.98;5.47;;;;;;;26.48;49.71;101368.02;1858486;77;21057;-86
2021/07/24 08:03:58;;;;;;;8.73;5.72;;;;;;;26.28;49.92;101377.23;1858736;77;21007;-86
2021/07/24 08:06:24;;;;;;;13.85;6.97;;;;;;;25.95;50.06;101375.95;1858702;77;22240;-85
2021/07/24 08:08:51;;;;;;;16.05;10.63;;;;;;;25.75;50.62;101380.08;1845199;77;21475;-85
2021/07/24 08:11:18;;;;;;;14.23;8.18;;;;;;;25.70;50.91;101383.36;1828137;75;21738;-85
2021/07/24 08:13:45;;;;;;;10.30;7.17;;;;;;;25.77;50.97;101376.88;1847814;77;21485;-85
2021/07/24 08:16:16;;;;;;;7.58;6.40;;;;;;;25.76;50.83;101384.53;1832394;77;21517;-85
2021/07/24 08:18:45;;;;;;;6.80;5.15;;;;;;;25.83;51.10;101381.65;1858481;77;21167;-85
2021/07/24 08:21:12;;;;;;;11.12;6.85;;;;;;;25.92;51.10;101376.02;1858801;76;21054;-85
2021/07/24 08:23:39;;;;;;;7.28;5.58;;;;;;;26.06;51.02;101378.34;1858510;77;21737;-85
2021/07/24 08:26:05;;;;;;;9.28;5.78;;;;;;;26.08;50.87;101379.17;1849087;77;21093;-85
2021/07/24 08:28:32;;;;;;;9.75;5.22;;;;;;;25.99;50.88;101379.84;1858739;77;21010;-85
2021/07/24 08:31:00;;;;;;;10.15;6.85;;;;;;;26.01;51.29;101383.85;1858825;76;21014;-86
2021/07/24 08:33:27;;;;;;;7.97;5.40;;;;;;;26.03;51.33;101378.42;1858798;77;21073;-85
2021/07/24 08:35:57;;;;;;;7.25;4.55;;;;;;;25.96;51.10;101384.00;1858589;76;22595;-85
2021/07/24 08:38:24;;;;;;;10.43;5.70;;;;;;;25.98;51.31;101382.14;1858587;77;21041;-85
2021/07/24 08:40:50;;;;;;;9.08;4.60;;;;;;;26.22;51.14;101384.14;1858728;77;20975;-85
2021/07/24 08:43:17;;;;;;;9.53;5.20;;;;;;;26.43;50.98;101382.59;1858714;77;21058;-85
2021/07/24 08:45:44;;;;;;;7.05;4.47;;;;;;;26.52;50.67;101388.63;1858586;77;21520;-85
2021/07/24 08:48:11;;;;;;;7.58;4.87;;;;;;;26.74;50.58;101382.55;1858895;76;21849;-85
2021/07/24 08:50:39;;;;;;;6.60;4.55;;;;;;;26.89;50.29;101374.42;1858595;77;20994;-85
2021/07/24 08:53:07;;;;;;;8.48;4.85;;;;;;;26.89;50.00;101374.42;1858566;76;21652;-85
2021/07/24 08:55:35;;;;;;;7.58;4.83;;;;;;;26.66;49.82;101374.70;1858790;77;20974;-85
2021/07/24 08:58:01;;;;;;;7.45;5.35;;;;;;;26.47;50.00;101381.12;1858678;77;20962;-85
2021/07/24 09:00:28;;;;;;;11.28;6.12;;;;;;;26.29;49.99;101377.64;1858462;76;21798;-85
2021/07/24 09:03:00;;;;;;;8.25;4.80;;;;;;;26.13;50.14;101378.11;1858681;77;20987;-85
2021/07/24 09:05:32;;;;;;;7.85;5.05;;;;;;;26.05;50.49;101371.16;1847375;77;21574;-86
2021/07/24 09:08:01;;;;;;;6.90;4.72;;;;;;;26.12;50.42;101376.33;1855510;77;20995;-85
2021/07/24 09:10:27;;;;;;;6.10;4.30;;;;;;;26.17;50.13;101373.50;1846969;77;21133;-85
2021/07/24 09:12:56;;;;;;;7.60;4.50;;;;;;;26.19;50.38;101371.17;1847116;77;22595;-85
2021/07/24 09:15:22;;;;;;;6.95;4.70;;;;;;;26.37;49.87;101379.19;1846894;77;20995;-85
2021/07/24 09:17:49;;;;;;;8.50;4.90;;;;;;;26.58;49.67;101376.74;1818542;76;21042;-85
2021/07/24 09:22:43;;;;;;;8.15;5.03;;;;;;;27.06;49.01;101367.97;1822242;76;21022;-85
2021/07/24 09:25:21;;;;;;;7.95;5.22;;;;;;;27.18;48.61;101373.45;1833643;77;21883;-85
2021/07/24 09:27:49;;;;;;;6.33;4.53;;;;;;;27.10;48.25;101366.95;1814953;78;21494;-85
2021/07/24 09:30:29;;;;;;;7.87;4.65;;;;;;;26.76;48.17;101364.00;1826056;77;21080;-85
2021/07/24 09:33:12;;;;;;;7.97;5.33;;;;;;;26.52;48.45;101369.72;1846529;76;20996;-85
2021/07/24 09:35:42;;;;;;;8.30;5.00;;;;;;;26.29;48.79;101366.84;1846881;77;21034;-85
2021/07/24 09:38:16;;;;;;;7.90;5.00;;;;;;;26.27;49.44;101369.58;1847446;77;21819;-85
2021/07/24 09:40:44;;;;;;;7.62;4.67;;;;;;;26.30;49.44;101360.53;1846875;77;20988;-84
2021/07/24 09:43:35;;;;;;;7.92;5.20;;;;;;;26.33;49.69;101353.67;1846892;77;21104;-85
2021/07/24 09:46:18;;;;;;;5.97;4.83;;;;;;;26.23;49.86;101357.59;1847214;77;21555;-84
2021/07/24 09:48:51;;;;;;;12.03;5.17;;;;;;;25.94;50.19;101353.49;1847057;77;21054;-85
2021/07/24 09:51:40;;;;;;;6.17;4.45;;;;;;;25.78;51.14;101362.92;1846672;77;22052;-85
2021/07/24 09:54:09;;;;;;;7.78;5.20;;;;;;;25.78;51.14;101362.92;1840584;77;21102;-84
2021/07/24 09:56:44;;;;;;;7.90;5.03;;;;;;;25.64;51.01;101363.32;1844310;77;21018;-84
2021/07/24 09:59:32;;;;;;;10.10;5.03;;;;;;;25.54;51.36;101367.19;1846030;77;20980;-85
2021/07/24 10:02:02;;;;;;;6.85;4.60;;;;;;;25.44;51.51;101361.64;1841912;77;21027;-85
2021/07/24 10:04:36;;;;;;;7.33;5.22;;;;;;;25.34;51.68;101351.55;1846954;77;21672;-85
2021/07/24 10:07:09;;;;;;;5.40;4.87;;;;;;;25.30;51.42;101356.16;1846673;77;20972;-85
2021/07/24 10:09:40;;;;;;;8.10;5.42;;;;;;;25.30;51.48;101356.16;1841334;77;20999;-86
2021/07/24 10:12:10;;;;;;;7.58;5.28;;;;;;;25.37;51.43;101359.55;1845581;77;21050;-85
2021/07/24 10:14:37;;;;;;;6.12;4.87;;;;;;;25.46;51.14;101350.34;1846910;76;20991;-85
2021/07/24 10:17:03;;;;;;;5.60;5.10;;;;;;;25.51;50.93;101350.64;1846870;77;21733;-85
2021/07/24 10:19:30;;;;;;;8.10;5.47;;;;;;;25.68;51.13;101342.55;1846422;77;21449;-86
2021/07/24 10:21:58;;;;;;;4.58;3.85;;;;;;;25.96;51.17;101347.59;1846898;77;20979;-85
2021/07/24 10:24:25;;;;;;;6.00;4.42;;;;;;;26.19;50.94;101356.80;1846729;77;20981;-85
2021/07/24 10:27:08;;;;;;;9.25;4.95;;;;;;;26.28;50.56;101338.11;1846795;77;20979;-85
2021/07/24 10:29:37;;;;;;;6.60;4.55;;;;;;;26.34;50.46;101337.91;1846995;77;21917;-84
2021/07/24 10:32:09;;;;;;;6.25;4.37;;;;;;;26.41;50.11;101337.23;1846871;77;21046;-84
2021/07/24 10:34:40;;;;;;;6.78;4.67;;;;;;;26.46;50.16;101335.27;1848007;76;21022;-85
2021/07/24 10:37:32;;;;;;;8.80;4.22;;;;;;;26.52;50.09;101340.02;1845075;76;21070;-84
2021/07/24 10:40:27;;;;;;;5.42;4.62;;;;;;;26.49;49.37;101339.23;1841488;76;20980;-85
2021/07/24 10:42:54;;;;;;;10.18;4.92;;;;;;;26.45;49.39;101339.80;1819689;77;21958;-84
2021/07/24 10:45:45;;;;;;;7.15;4.92;;;;;;;26.49;49.45;101336.06;1829444;77;21046;-85
2021/07/24 10:48:21;;;;;;;5.67;4.47;;;;;;;26.63;49.39;101335.64;1845883;76;21046;-85
2021/07/24 10:50:56;;;;;;;5.12;4.15;;;;;;;26.70;49.08;101336.33;1824161;77;21079;-85
2021/07/24 10:53:27;;;;;;;7.33;4.37;;;;;;;26.61;48.82;101328.05;1847107;77;21014;-85
2021/07/24 10:55:53;;;;;;;9.60;3.75;;;;;;;26.35;49.05;101330.20;1820061;77;21785;-85
2021/07/24 10:58:25;;;;;;;9.80;4.47;;;;;;;26.09;49.35;101342.71;1833013;77;21106;-85
2021/07/24 11:00:57;;;;;;;6.00;3.70;;;;;;;25.94;49.60;101346.75;1828749;76;20991;-85
2021/07/24 11:03:36;;;;;;;5.78;4.08;;;;;;;25.62;49.68;101331.48;1846893;77;21023;-85
2021/07/24 11:06:25;;;;;;;6.45;3.75;;;;;;;25.44;50.08;101332.87;1847482;77;20971;-85
2021/07/24 11:09:11;;;;;;;5.97;4.08;;;;;;;25.20;50.35;101342.45;1846843;77;21758;-85
2021/07/24 11:11:49;;;;;;;4.75;3.58;;;;;;;25.16;50.99;101338.09;1846923;77;21521;-85
2021/07/24 11:14:42;;;;;;;4.95;3.62;;;;;;;25.20;51.20;101355.93;1838316;76;21010;-85
2021/07/24 11:17:16;;;;;;;8.15;4.30;;;;;;;25.10;50.98;101334.22;1824917;77;21194;-85
2021/07/24 11:20:03;;;;;;;8.95;3.83;;;;;;;24.83;51.11;101340.70;1842641;77;21445;-85
2021/07/24 11:22:31;;;;;;;5.80;3.60;;;;;;;24.62;51.45;101334.05;1844349;77;21777;-85
2021/07/24 11:25:03;;;;;;;4.28;3.83;;;;;;;24.47;51.83;101330.34;1846506;77;21548;-85
2021/07/24 11:27:35;;;;;;;8.98;4.28;;;;;;;24.32;52.07;101328.42;1846881;77;20991;-85
2021/07/24 11:30:08;;;;;;;4.10;3.55;;;;;;;24.21;52.19;101346.18;1830121;77;21058;-85
2021/07/24 11:32:44;;;;;;;5.87;4.12;;;;;;;24.20;52.53;101333.63;1846512;77;21037;-85
2021/07/24 11:35:15;;;;;;;6.05;5.17;;;;;;;24.20;52.68;101340.36;1846823;77;21785;-85
2021/07/24 11:37:48;;;;;;;7.20;3.92;;;;;;;24.23;52.95;101335.36;1846855;77;20983;-86